sensor_id;sensor_type;location;lat;lon;timestamp;P1;durP1;ratioP1;P2;durP2;ratioP2
51467;SDS011;37545;45.302;-122.946;2022-12-20T00:01:23;10.40;;;4.72;;
51467;SDS011;37545;45.302;-122.946;2022-12-20T00:03:54;7.97;;;4.15;;
51467;SDS011;37545;45.302;-122.946;2022-12-20T00:06:26;11.35;;;4.35;;
51467;SDS011;37545;45.302;-122.946;2022-12-20T00:08:54;9.73;;;4.03;;
51467;SDS011;37545;45.302;-122.946;2022-12-20T00:11:24;12.25;;;4.53;;
51467;SDS011;37545;45.302;-122.946;2022-12-20T00:13:53;9.10;;;4.18;;
51467;SDS011;37545;45.302;-122.946;2022-12-20T00:16:23;9.93;;;3.45;;
51467;SDS011;37545;45.302;-122.946;2022-12-20T00:18:53;9.48;;;3.85;;
51467;SDS011;37545;45.302;-122.946;2022-12-20T00:21:23;6.28;;;3.15;;
51467;SDS011;37545;45.302;-122.946;2022-12-20T00:23:54;7.05;;;2.85;;
51467;SDS011;37545;45.302;-122.946;2022-12-20T00:26:24;5.97;;;3.50;;
51467;SDS011;37545;45.302;-122.946;2022-12-20T00:28:54;7.25;;;3.13;;
51467;SDS011;37545;45.302;-122.946;2022-12-20T00:31:23;4.32;;;2.58;;
51467;SDS011;37545;45.302;-122.946;2022-12-20T00:33:53;5.82;;;2.80;;
51467;SDS011;37545;45.302;-122.946;2022-12-20T00:36:23;5.15;;;2.72;;
51467;SDS011;37545;45.302;-122.946;2022-12-20T00:38:55;5.65;;;2.50;;
51467;SDS011;37545;45.302;-122.946;2022-12-20T00:41:25;9.95;;;4.15;;
51467;SDS011;37545;45.302;-122.946;2022-12-20T00:43:55;5.15;;;2.40;;
51467;SDS011;37545;45.302;-122.946;2022-12-20T00:46:24;7.70;;;3.03;;
51467;SDS011;37545;45.302;-122.946;2022-12-20T00:48:54;5.85;;;2.35;;
51467;SDS011;37545;45.302;-122.946;2022-12-20T00:51:24;5.63;;;2.40;;
51467;SDS011;37545;45.302;-122.946;2022-12-20T00:53:55;5.47;;;2.40;;
51467;SDS011;37545;45.302;-122.946;2022-12-20T00:56:24;5.43;;;2.58;;
51467;SDS011;37545;45.302;-122.946;2022-12-20T00:58:52;7.63;;;2.80;;
51467;SDS011;37545;45.302;-122.946;2022-12-20T01:01:22;4.45;;;2.38;;
51467;SDS011;37545;45.302;-122.946;2022-12-20T01:03:52;6.45;;;2.65;;
51467;SDS011;37545;45.302;-122.946;2022-12-20T01:06:21;6.30;;;2.67;;
51467;SDS011;37545;45.302;-122.946;2022-12-20T01:08:53;9.82;;;2.90;;
51467;SDS011;37545;45.302;-122.946;2022-12-20T01:11:22;8.48;;;2.50;;
51467;SDS011;37545;45.302;-122.946;2022-12-20T01:13:52;9.95;;;4.30;;
51467;SDS011;37545;45.302;-122.946;2022-12-20T01:16:23;10.48;;;4.35;;
51467;SDS011;37545;45.302;-122.946;2022-12-20T01:18:53;7.68;;;4.55;;
51467;SDS011;37545;45.302;-122.946;2022-12-20T01:21:23;11.32;;;4.85;;
51467;SDS011;37545;45.302;-122.946;2022-12-20T01:23:54;14.38;;;4.70;;
51467;SDS011;37545;45.302;-122.946;2022-12-20T01:26:25;10.85;;;4.75;;
51467;SDS011;37545;45.302;-122.946;2022-12-20T01:28:55;8.73;;;3.78;;
51467;SDS011;37545;45.302;-122.946;2022-12-20T01:31:25;12.45;;;4.60;;
51467;SDS011;37545;45.302;-122.946;2022-12-20T01:33:55;8.27;;;3.45;;
51467;SDS011;37545;45.302;-122.946;2022-12-20T01:36:24;9.52;;;3.97;;
51467;SDS011;37545;45.302;-122.946;2022-12-20T01:38:57;7.20;;;3.72;;
51467;SDS011;37545;45.302;-122.946;2022-12-20T01:41:28;8.02;;;3.40;;
51467;SDS011;37545;45.302;-122.946;2022-12-20T01:43:57;8.15;;;3.28;;
51467;SDS011;37545;45.302;-122.946;2022-12-20T01:46:28;8.88;;;3.13;;
51467;SDS011;37545;45.302;-122.946;2022-12-20T01:48:58;6.60;;;2.88;;
51467;SDS011;37545;45.302;-122.946;2022-12-20T01:51:29;5.45;;;2.50;;
51467;SDS011;37545;45.302;-122.946;2022-12-20T01:54:03;11.00;;;3.05;;
51467;SDS011;37545;45.302;-122.946;2022-12-20T01:56:35;7.07;;;3.05;;
51467;SDS011;37545;45.302;-122.946;2022-12-20T01:59:13;10.18;;;3.22;;
51467;SDS011;37545;45.302;-122.946;2022-12-20T02:01:42;7.32;;;2.92;;
51467;SDS011;37545;45.302;-122.946;2022-12-20T02:04:11;7.07;;;2.70;;
51467;SDS011;37545;45.302;-122.946;2022-12-20T02:06:40;10.65;;;2.78;;
51467;SDS011;37545;45.302;-122.946;2022-12-20T02:09:10;5.10;;;2.90;;
51467;SDS011;37545;45.302;-122.946;2022-12-20T02:11:48;8.38;;;3.08;;
51467;SDS011;37545;45.302;-122.946;2022-12-20T02:14:34;5.45;;;2.55;;
51467;SDS011;37545;45.302;-122.946;2022-12-20T02:17:16;9.95;;;2.35;;
51467;SDS011;37545;45.302;-122.946;2022-12-20T02:20:02;9.00;;;2.72;;
51467;SDS011;37545;45.302;-122.946;2022-12-20T02:22:53;7.38;;;3.35;;
51467;SDS011;37545;45.302;-122.946;2022-12-20T02:25:44;6.93;;;2.80;;
51467;SDS011;37545;45.302;-122.946;2022-12-20T02:28:31;9.65;;;3.00;;
51467;SDS011;37545;45.302;-122.946;2022-12-20T02:31:20;5.13;;;2.75;;
51467;SDS011;37545;45.302;-122.946;2022-12-20T02:33:54;5.72;;;2.72;;
51467;SDS011;37545;45.302;-122.946;2022-12-20T02:36:24;4.20;;;2.33;;
51467;SDS011;37545;45.302;-122.946;2022-12-20T02:38:52;7.70;;;3.67;;
51467;SDS011;37545;45.302;-122.946;2022-12-20T02:41:22;6.07;;;3.05;;
51467;SDS011;37545;45.302;-122.946;2022-12-20T02:43:54;7.18;;;3.85;;
51467;SDS011;37545;45.302;-122.946;2022-12-20T02:46:43;7.45;;;3.40;;
51467;SDS011;37545;45.302;-122.946;2022-12-20T02:49:14;6.25;;;3.10;;
51467;SDS011;37545;45.302;-122.946;2022-12-20T02:51:46;10.90;;;4.43;;
51467;SDS011;37545;45.302;-122.946;2022-12-20T02:54:17;10.68;;;4.82;;
51467;SDS011;37545;45.302;-122.946;2022-12-20T02:56:47;16.65;;;5.57;;
51467;SDS011;37545;45.302;-122.946;2022-12-20T03:01:50;10.05;;;4.78;;
51467;SDS011;37545;45.302;-122.946;2022-12-20T03:04:21;13.25;;;4.88;;
51467;SDS011;37545;45.302;-122.946;2022-12-20T03:06:57;13.17;;;5.77;;
51467;SDS011;37545;45.302;-122.946;2022-12-20T03:09:26;11.93;;;4.97;;
51467;SDS011;37545;45.302;-122.946;2022-12-20T03:11:56;10.85;;;4.90;;
51467;SDS011;37545;45.302;-122.946;2022-12-20T03:14:25;11.13;;;4.38;;
51467;SDS011;37545;45.302;-122.946;2022-12-20T03:16:55;10.95;;;5.20;;
51467;SDS011;37545;45.302;-122.946;2022-12-20T03:19:24;13.13;;;5.00;;
51467;SDS011;37545;45.302;-122.946;2022-12-20T03:21:53;8.93;;;4.55;;
51467;SDS011;37545;45.302;-122.946;2022-12-20T03:24:22;9.75;;;4.13;;
51467;SDS011;37545;45.302;-122.946;2022-12-20T03:26:50;13.38;;;4.20;;
51467;SDS011;37545;45.302;-122.946;2022-12-20T03:29:19;7.18;;;3.30;;
51467;SDS011;37545;45.302;-122.946;2022-12-20T03:31:47;8.68;;;4.97;;
51467;SDS011;37545;45.302;-122.946;2022-12-20T03:34:18;12.07;;;4.78;;
51467;SDS011;37545;45.302;-122.946;2022-12-20T03:36:47;8.30;;;3.92;;
51467;SDS011;37545;45.302;-122.946;2022-12-20T03:39:15;10.55;;;4.07;;
51467;SDS011;37545;45.302;-122.946;2022-12-20T03:41:44;13.77;;;3.63;;
51467;SDS011;37545;45.302;-122.946;2022-12-20T03:44:13;12.40;;;5.57;;
51467;SDS011;37545;45.302;-122.946;2022-12-20T03:46:42;8.50;;;3.92;;
51467;SDS011;37545;45.302;-122.946;2022-12-20T03:49:10;8.93;;;4.47;;
51467;SDS011;37545;45.302;-122.946;2022-12-20T03:51:41;14.88;;;5.03;;
51467;SDS011;37545;45.302;-122.946;2022-12-20T03:54:10;11.23;;;5.72;;
51467;SDS011;37545;45.302;-122.946;2022-12-20T03:56:39;13.20;;;5.70;;
51467;SDS011;37545;45.302;-122.946;2022-12-20T03:59:08;16.08;;;6.60;;
51467;SDS011;37545;45.302;-122.946;2022-12-20T04:01:37;17.63;;;6.43;;
51467;SDS011;37545;45.302;-122.946;2022-12-20T04:04:06;11.32;;;5.72;;
51467;SDS011;37545;45.302;-122.946;2022-12-20T04:06:37;9.13;;;4.35;;
51467;SDS011;37545;45.302;-122.946;2022-12-20T04:09:07;12.20;;;5.07;;
51467;SDS011;37545;45.302;-122.946;2022-12-20T04:11:36;11.13;;;5.18;;
51467;SDS011;37545;45.302;-122.946;2022-12-20T04:14:05;10.27;;;4.50;;
51467;SDS011;37545;45.302;-122.946;2022-12-20T04:16:34;9.05;;;4.32;;
51467;SDS011;37545;45.302;-122.946;2022-12-20T04:19:03;11.07;;;4.57;;
51467;SDS011;37545;45.302;-122.946;2022-12-20T04:21:32;15.02;;;4.07;;
51467;SDS011;37545;45.302;-122.946;2022-12-20T04:24:02;12.27;;;4.38;;
51467;SDS011;37545;45.302;-122.946;2022-12-20T04:26:33;10.07;;;4.53;;
51467;SDS011;37545;45.302;-122.946;2022-12-20T04:29:02;13.20;;;4.75;;
51467;SDS011;37545;45.302;-122.946;2022-12-20T04:31:30;14.05;;;4.13;;
51467;SDS011;37545;45.302;-122.946;2022-12-20T04:33:59;13.52;;;5.57;;
51467;SDS011;37545;45.302;-122.946;2022-12-20T04:36:28;12.30;;;5.03;;
51467;SDS011;37545;45.302;-122.946;2022-12-20T04:38:57;10.63;;;3.97;;
51467;SDS011;37545;45.302;-122.946;2022-12-20T04:41:25;11.00;;;4.18;;
51467;SDS011;37545;45.302;-122.946;2022-12-20T04:43:56;15.05;;;5.40;;
51467;SDS011;37545;45.302;-122.946;2022-12-20T04:46:25;16.45;;;4.55;;
51467;SDS011;37545;45.302;-122.946;2022-12-20T04:48:54;8.35;;;4.13;;
51467;SDS011;37545;45.302;-122.946;2022-12-20T04:51:22;10.05;;;4.45;;
51467;SDS011;37545;45.302;-122.946;2022-12-20T04:53:57;9.10;;;4.40;;
51467;SDS011;37545;45.302;-122.946;2022-12-20T04:56:25;13.52;;;5.00;;
51467;SDS011;37545;45.302;-122.946;2022-12-20T04:58:57;12.40;;;5.15;;
51467;SDS011;37545;45.302;-122.946;2022-12-20T05:01:27;9.00;;;4.30;;
51467;SDS011;37545;45.302;-122.946;2022-12-20T05:03:56;11.48;;;4.63;;
51467;SDS011;37545;45.302;-122.946;2022-12-20T05:06:24;11.00;;;4.75;;
51467;SDS011;37545;45.302;-122.946;2022-12-20T05:08:53;12.13;;;5.53;;
51467;SDS011;37545;45.302;-122.946;2022-12-20T05:11:21;8.60;;;4.65;;
51467;SDS011;37545;45.302;-122.946;2022-12-20T05:13:50;9.88;;;4.32;;
51467;SDS011;37545;45.302;-122.946;2022-12-20T05:16:21;11.32;;;4.63;;
51467;SDS011;37545;45.302;-122.946;2022-12-20T05:18:49;9.55;;;5.03;;
51467;SDS011;37545;45.302;-122.946;2022-12-20T05:21:19;10.05;;;5.32;;
51467;SDS011;37545;45.302;-122.946;2022-12-20T05:24:05;12.05;;;5.47;;
51467;SDS011;37545;45.302;-122.946;2022-12-20T05:26:50;10.30;;;4.40;;
51467;SDS011;37545;45.302;-122.946;2022-12-20T05:29:19;7.70;;;4.35;;
51467;SDS011;37545;45.302;-122.946;2022-12-20T05:31:49;8.82;;;4.93;;
51467;SDS011;37545;45.302;-122.946;2022-12-20T05:34:18;10.20;;;5.15;;
51467;SDS011;37545;45.302;-122.946;2022-12-20T05:36:47;8.50;;;4.28;;
51467;SDS011;37545;45.302;-122.946;2022-12-20T05:39:16;9.45;;;4.35;;
51467;SDS011;37545;45.302;-122.946;2022-12-20T05:41:45;8.23;;;3.90;;
51467;SDS011;37545;45.302;-122.946;2022-12-20T05:44:13;15.05;;;4.75;;
51467;SDS011;37545;45.302;-122.946;2022-12-20T05:46:42;10.82;;;4.80;;
51467;SDS011;37545;45.302;-122.946;2022-12-20T05:49:12;11.50;;;4.30;;
51467;SDS011;37545;45.302;-122.946;2022-12-20T05:51:41;11.50;;;4.80;;
51467;SDS011;37545;45.302;-122.946;2022-12-20T05:54:10;12.57;;;5.20;;
51467;SDS011;37545;45.302;-122.946;2022-12-20T05:56:39;12.73;;;5.43;;
51467;SDS011;37545;45.302;-122.946;2022-12-20T05:59:07;9.73;;;4.90;;
51467;SDS011;37545;45.302;-122.946;2022-12-20T06:01:36;12.05;;;4.35;;
51467;SDS011;37545;45.302;-122.946;2022-12-20T06:04:05;13.15;;;5.05;;
51467;SDS011;37545;45.302;-122.946;2022-12-20T06:06:35;10.68;;;4.50;;
51467;SDS011;37545;45.302;-122.946;2022-12-20T06:09:04;16.67;;;6.25;;
51467;SDS011;37545;45.302;-122.946;2022-12-20T06:11:33;15.75;;;6.07;;
51467;SDS011;37545;45.302;-122.946;2022-12-20T06:14:01;17.05;;;6.25;;
51467;SDS011;37545;45.302;-122.946;2022-12-20T06:16:30;12.18;;;4.93;;
51467;SDS011;37545;45.302;-122.946;2022-12-20T06:18:59;12.45;;;5.35;;
51467;SDS011;37545;45.302;-122.946;2022-12-20T06:21:27;14.07;;;5.22;;
51467;SDS011;37545;45.302;-122.946;2022-12-20T06:23:58;14.70;;;4.97;;
51467;SDS011;37545;45.302;-122.946;2022-12-20T06:26:27;12.75;;;4.20;;
51467;SDS011;37545;45.302;-122.946;2022-12-20T06:29:00;9.85;;;3.55;;
51467;SDS011;37545;45.302;-122.946;2022-12-20T06:31:31;13.77;;;3.92;;
51467;SDS011;37545;45.302;-122.946;2022-12-20T06:34:00;6.45;;;3.25;;
51467;SDS011;37545;45.302;-122.946;2022-12-20T06:36:29;5.93;;;3.67;;
51467;SDS011;37545;45.302;-122.946;2022-12-20T06:38:59;6.25;;;3.17;;
51467;SDS011;37545;45.302;-122.946;2022-12-20T06:41:28;7.97;;;3.30;;
51467;SDS011;37545;45.302;-122.946;2022-12-20T06:43:57;7.22;;;3.72;;
51467;SDS011;37545;45.302;-122.946;2022-12-20T06:46:26;13.40;;;3.83;;
51467;SDS011;37545;45.302;-122.946;2022-12-20T06:48:55;10.60;;;4.00;;
51467;SDS011;37545;45.302;-122.946;2022-12-20T06:51:23;8.10;;;3.40;;
51467;SDS011;37545;45.302;-122.946;2022-12-20T06:53:52;5.93;;;3.38;;
51467;SDS011;37545;45.302;-122.946;2022-12-20T06:56:22;8.88;;;3.90;;
51467;SDS011;37545;45.302;-122.946;2022-12-20T06:58:51;10.80;;;3.88;;
51467;SDS011;37545;45.302;-122.946;2022-12-20T07:01:20;7.43;;;3.70;;
51467;SDS011;37545;45.302;-122.946;2022-12-20T07:03:48;9.63;;;3.83;;
51467;SDS011;37545;45.302;-122.946;2022-12-20T07:06:17;13.07;;;4.13;;
51467;SDS011;37545;45.302;-122.946;2022-12-20T07:08:45;10.77;;;3.55;;
51467;SDS011;37545;45.302;-122.946;2022-12-20T07:11:14;10.48;;;4.43;;
51467;SDS011;37545;45.302;-122.946;2022-12-20T07:13:44;8.32;;;3.83;;
51467;SDS011;37545;45.302;-122.946;2022-12-20T07:16:14;12.68;;;3.17;;
51467;SDS011;37545;45.302;-122.946;2022-12-20T07:18:43;10.02;;;3.85;;
51467;SDS011;37545;45.302;-122.946;2022-12-20T07:21:15;5.20;;;2.80;;
51467;SDS011;37545;45.302;-122.946;2022-12-20T07:23:44;5.88;;;3.22;;
51467;SDS011;37545;45.302;-122.946;2022-12-20T07:26:13;6.35;;;3.30;;
51467;SDS011;37545;45.302;-122.946;2022-12-20T07:28:42;6.78;;;3.50;;
51467;SDS011;37545;45.302;-122.946;2022-12-20T07:31:12;8.45;;;3.40;;
51467;SDS011;37545;45.302;-122.946;2022-12-20T07:33:41;8.50;;;4.05;;
51467;SDS011;37545;45.302;-122.946;2022-12-20T07:36:10;9.98;;;3.00;;
51467;SDS011;37545;45.302;-122.946;2022-12-20T07:38:40;7.68;;;3.47;;
51467;SDS011;37545;45.302;-122.946;2022-12-20T07:41:10;8.45;;;3.30;;
51467;SDS011;37545;45.302;-122.946;2022-12-20T07:43:39;6.95;;;3.05;;
51467;SDS011;37545;45.302;-122.946;2022-12-20T07:46:09;5.28;;;2.78;;
51467;SDS011;37545;45.302;-122.946;2022-12-20T07:48:40;6.30;;;3.00;;
51467;SDS011;37545;45.302;-122.946;2022-12-20T07:51:11;5.82;;;2.80;;
51467;SDS011;37545;45.302;-122.946;2022-12-20T07:53:44;7.40;;;3.83;;
51467;SDS011;37545;45.302;-122.946;2022-12-20T07:56:16;6.78;;;3.83;;
51467;SDS011;37545;45.302;-122.946;2022-12-20T07:58:47;6.82;;;3.30;;
51467;SDS011;37545;45.302;-122.946;2022-12-20T08:01:19;7.03;;;3.55;;
51467;SDS011;37545;45.302;-122.946;2022-12-20T08:03:50;6.35;;;3.75;;
51467;SDS011;37545;45.302;-122.946;2022-12-20T08:06:22;5.82;;;3.40;;
51467;SDS011;37545;45.302;-122.946;2022-12-20T08:08:53;6.10;;;3.83;;
51467;SDS011;37545;45.302;-122.946;2022-12-20T08:11:24;7.05;;;3.72;;
51467;SDS011;37545;45.302;-122.946;2022-12-20T08:13:56;10.95;;;4.30;;
51467;SDS011;37545;45.302;-122.946;2022-12-20T08:16:26;5.97;;;2.97;;
51467;SDS011;37545;45.302;-122.946;2022-12-20T08:18:55;6.95;;;4.05;;
51467;SDS011;37545;45.302;-122.946;2022-12-20T08:21:24;7.45;;;3.88;;
51467;SDS011;37545;45.302;-122.946;2022-12-20T08:23:53;8.10;;;3.95;;
51467;SDS011;37545;45.302;-122.946;2022-12-20T08:26:22;10.80;;;3.90;;
51467;SDS011;37545;45.302;-122.946;2022-12-20T08:28:51;5.63;;;3.75;;
51467;SDS011;37545;45.302;-122.946;2022-12-20T08:31:20;5.70;;;3.60;;
51467;SDS011;37545;45.302;-122.946;2022-12-20T08:33:52;6.57;;;3.40;;
51467;SDS011;37545;45.302;-122.946;2022-12-20T08:36:21;8.77;;;3.97;;
51467;SDS011;37545;45.302;-122.946;2022-12-20T08:38:50;8.65;;;4.47;;
51467;SDS011;37545;45.302;-122.946;2022-12-20T08:41:19;11.10;;;4.38;;
51467;SDS011;37545;45.302;-122.946;2022-12-20T08:43:57;13.75;;;5.30;;
51467;SDS011;37545;45.302;-122.946;2022-12-20T08:46:25;15.88;;;6.35;;
51467;SDS011;37545;45.302;-122.946;2022-12-20T08:48:55;18.08;;;8.13;;
51467;SDS011;37545;45.302;-122.946;2022-12-20T08:51:24;15.65;;;6.60;;
51467;SDS011;37545;45.302;-122.946;2022-12-20T08:53:53;16.58;;;7.43;;
51467;SDS011;37545;45.302;-122.946;2022-12-20T08:56:35;13.20;;;6.10;;
51467;SDS011;37545;45.302;-122.946;2022-12-20T08:59:04;12.25;;;5.70;;
51467;SDS011;37545;45.302;-122.946;2022-12-20T09:01:32;16.70;;;6.45;;
51467;SDS011;37545;45.302;-122.946;2022-12-20T09:04:03;15.93;;;6.30;;
51467;SDS011;37545;45.302;-122.946;2022-12-20T09:06:33;14.85;;;5.63;;
51467;SDS011;37545;45.302;-122.946;2022-12-20T09:09:02;13.25;;;5.45;;
51467;SDS011;37545;45.302;-122.946;2022-12-20T09:11:31;12.80;;;5.05;;
51467;SDS011;37545;45.302;-122.946;2022-12-20T09:14:00;9.32;;;4.60;;
51467;SDS011;37545;45.302;-122.946;2022-12-20T09:16:30;10.43;;;4.75;;
51467;SDS011;37545;45.302;-122.946;2022-12-20T09:19:00;12.27;;;5.72;;
51467;SDS011;37545;45.302;-122.946;2022-12-20T09:21:30;9.63;;;5.35;;
51467;SDS011;37545;45.302;-122.946;2022-12-20T09:23:59;11.35;;;5.75;;
51467;SDS011;37545;45.302;-122.946;2022-12-20T09:26:28;8.80;;;5.05;;
51467;SDS011;37545;45.302;-122.946;2022-12-20T09:28:57;11.32;;;5.07;;
51467;SDS011;37545;45.302;-122.946;2022-12-20T09:31:26;10.25;;;4.65;;
51467;SDS011;37545;45.302;-122.946;2022-12-20T09:33:55;9.45;;;5.32;;
51467;SDS011;37545;45.302;-122.946;2022-12-20T09:36:25;10.32;;;5.65;;
51467;SDS011;37545;45.302;-122.946;2022-12-20T09:38:56;11.80;;;4.72;;
51467;SDS011;37545;45.302;-122.946;2022-12-20T09:41:27;14.68;;;6.50;;
51467;SDS011;37545;45.302;-122.946;2022-12-20T09:44:01;11.82;;;5.45;;
51467;SDS011;37545;45.302;-122.946;2022-12-20T09:46:33;11.23;;;5.68;;
51467;SDS011;37545;45.302;-122.946;2022-12-20T09:49:02;8.95;;;4.55;;
51467;SDS011;37545;45.302;-122.946;2022-12-20T09:51:38;12.13;;;4.63;;
51467;SDS011;37545;45.302;-122.946;2022-12-20T09:54:33;13.00;;;4.43;;
51467;SDS011;37545;45.302;-122.946;2022-12-20T09:57:11;9.30;;;4.63;;
51467;SDS011;37545;45.302;-122.946;2022-12-20T09:59:49;11.32;;;5.05;;
51467;SDS011;37545;45.302;-122.946;2022-12-20T10:02:19;9.65;;;4.53;;
51467;SDS011;37545;45.302;-122.946;2022-12-20T10:04:50;9.18;;;4.13;;
51467;SDS011;37545;45.302;-122.946;2022-12-20T10:07:23;8.27;;;4.57;;
51467;SDS011;37545;45.302;-122.946;2022-12-20T10:10:13;8.90;;;4.78;;
51467;SDS011;37545;45.302;-122.946;2022-12-20T10:13:02;10.75;;;4.43;;
51467;SDS011;37545;45.302;-122.946;2022-12-20T10:15:46;9.55;;;4.22;;
51467;SDS011;37545;45.302;-122.946;2022-12-20T10:18:23;12.13;;;5.28;;
51467;SDS011;37545;45.302;-122.946;2022-12-20T10:21:05;11.68;;;5.38;;
51467;SDS011;37545;45.302;-122.946;2022-12-20T10:23:44;9.27;;;4.57;;
51467;SDS011;37545;45.302;-122.946;2022-12-20T10:26:24;12.63;;;5.20;;
51467;SDS011;37545;45.302;-122.946;2022-12-20T10:28:52;11.00;;;4.88;;
51467;SDS011;37545;45.302;-122.946;2022-12-20T10:31:21;10.77;;;5.28;;
51467;SDS011;37545;45.302;-122.946;2022-12-20T10:33:50;11.35;;;4.53;;
51467;SDS011;37545;45.302;-122.946;2022-12-20T10:36:20;9.85;;;4.85;;
51467;SDS011;37545;45.302;-122.946;2022-12-20T10:38:51;11.25;;;4.90;;
51467;SDS011;37545;45.302;-122.946;2022-12-20T10:41:22;15.55;;;5.95;;
51467;SDS011;37545;45.302;-122.946;2022-12-20T10:43:54;14.18;;;5.65;;
51467;SDS011;37545;45.302;-122.946;2022-12-20T10:46:36;12.07;;;5.72;;
51467;SDS011;37545;45.302;-122.946;2022-12-20T10:51:58;11.82;;;5.10;;
51467;SDS011;37545;45.302;-122.946;2022-12-20T10:54:29;11.90;;;5.82;;
51467;SDS011;37545;45.302;-122.946;2022-12-20T10:57:17;14.43;;;6.35;;
51467;SDS011;37545;45.302;-122.946;2022-12-20T10:59:49;11.52;;;6.45;;
51467;SDS011;37545;45.302;-122.946;2022-12-20T11:02:26;10.88;;;5.32;;
51467;SDS011;37545;45.302;-122.946;2022-12-20T11:04:57;16.13;;;6.13;;
51467;SDS011;37545;45.302;-122.946;2022-12-20T11:07:28;18.27;;;6.93;;
51467;SDS011;37545;45.302;-122.946;2022-12-20T11:09:58;16.60;;;6.68;;
51467;SDS011;37545;45.302;-122.946;2022-12-20T11:12:29;12.90;;;5.95;;
51467;SDS011;37545;45.302;-122.946;2022-12-20T11:17:48;14.70;;;6.78;;
51467;SDS011;37545;45.302;-122.946;2022-12-20T11:23:02;11.15;;;5.57;;
51467;SDS011;37545;45.302;-122.946;2022-12-20T11:25:46;14.77;;;6.32;;
51467;SDS011;37545;45.302;-122.946;2022-12-20T11:28:35;13.95;;;6.82;;
51467;SDS011;37545;45.302;-122.946;2022-12-20T11:31:19;17.80;;;6.95;;
51467;SDS011;37545;45.302;-122.946;2022-12-20T11:34:02;14.77;;;6.10;;
51467;SDS011;37545;45.302;-122.946;2022-12-20T11:36:48;24.48;;;8.20;;
51467;SDS011;37545;45.302;-122.946;2022-12-20T11:39:29;14.43;;;7.10;;
51467;SDS011;37545;45.302;-122.946;2022-12-20T11:42:07;16.55;;;7.30;;
51467;SDS011;37545;45.302;-122.946;2022-12-20T11:44:48;16.33;;;6.88;;
51467;SDS011;37545;45.302;-122.946;2022-12-20T11:47:29;18.67;;;6.78;;
51467;SDS011;37545;45.302;-122.946;2022-12-20T11:50:32;15.90;;;6.75;;
51467;SDS011;37545;45.302;-122.946;2022-12-20T11:53:12;11.48;;;6.15;;
51467;SDS011;37545;45.302;-122.946;2022-12-20T11:55:48;17.88;;;6.38;;
51467;SDS011;37545;45.302;-122.946;2022-12-20T11:58:22;12.07;;;6.75;;
51467;SDS011;37545;45.302;-122.946;2022-12-20T12:00:56;13.23;;;6.03;;
51467;SDS011;37545;45.302;-122.946;2022-12-20T12:03:29;18.98;;;6.35;;
51467;SDS011;37545;45.302;-122.946;2022-12-20T12:06:02;17.40;;;6.82;;
51467;SDS011;37545;45.302;-122.946;2022-12-20T12:08:38;16.77;;;8.13;;
51467;SDS011;37545;45.302;-122.946;2022-12-20T12:11:13;17.30;;;6.75;;
51467;SDS011;37545;45.302;-122.946;2022-12-20T12:13:45;12.38;;;6.53;;
51467;SDS011;37545;45.302;-122.946;2022-12-20T12:16:17;16.17;;;6.25;;
51467;SDS011;37545;45.302;-122.946;2022-12-20T12:18:50;12.15;;;6.10;;
51467;SDS011;37545;45.302;-122.946;2022-12-20T12:21:21;13.70;;;6.22;;
51467;SDS011;37545;45.302;-122.946;2022-12-20T12:23:55;13.43;;;6.72;;
51467;SDS011;37545;45.302;-122.946;2022-12-20T12:26:31;18.92;;;7.30;;
51467;SDS011;37545;45.302;-122.946;2022-12-20T12:29:02;18.77;;;7.45;;
51467;SDS011;37545;45.302;-122.946;2022-12-20T12:31:35;16.50;;;6.63;;
51467;SDS011;37545;45.302;-122.946;2022-12-20T12:34:09;16.48;;;6.90;;
51467;SDS011;37545;45.302;-122.946;2022-12-20T12:37:02;12.02;;;6.00;;
51467;SDS011;37545;45.302;-122.946;2022-12-20T12:42:54;13.15;;;6.57;;
51467;SDS011;37545;45.302;-122.946;2022-12-20T12:45:37;19.05;;;7.07;;
51467;SDS011;37545;45.302;-122.946;2022-12-20T12:48:13;13.75;;;7.00;;
51467;SDS011;37545;45.302;-122.946;2022-12-20T12:50:47;19.55;;;7.53;;
51467;SDS011;37545;45.302;-122.946;2022-12-20T12:53:20;14.75;;;6.35;;
51467;SDS011;37545;45.302;-122.946;2022-12-20T12:55:53;13.05;;;6.20;;
51467;SDS011;37545;45.302;-122.946;2022-12-20T12:58:31;17.70;;;7.60;;
51467;SDS011;37545;45.302;-122.946;2022-12-20T13:01:03;15.27;;;7.25;;
51467;SDS011;37545;45.302;-122.946;2022-12-20T13:03:44;16.35;;;6.68;;
51467;SDS011;37545;45.302;-122.946;2022-12-20T13:09:51;14.98;;;7.10;;
51467;SDS011;37545;45.302;-122.946;2022-12-20T13:18:24;17.75;;;7.22;;
51467;SDS011;37545;45.302;-122.946;2022-12-20T13:36:03;13.00;;;6.03;;
51467;SDS011;37545;45.302;-122.946;2022-12-20T13:38:58;13.27;;;6.72;;
51467;SDS011;37545;45.302;-122.946;2022-12-20T13:41:35;12.15;;;5.70;;
51467;SDS011;37545;45.302;-122.946;2022-12-20T13:44:16;11.23;;;6.03;;
51467;SDS011;37545;45.302;-122.946;2022-12-20T13:47:01;14.65;;;7.75;;
51467;SDS011;37545;45.302;-122.946;2022-12-20T13:49:39;14.32;;;6.78;;
51467;SDS011;37545;45.302;-122.946;2022-12-20T13:52:19;11.73;;;5.97;;
51467;SDS011;37545;45.302;-122.946;2022-12-20T13:54:51;15.57;;;6.95;;
51467;SDS011;37545;45.302;-122.946;2022-12-20T13:57:25;16.40;;;6.93;;
51467;SDS011;37545;45.302;-122.946;2022-12-20T13:59:58;17.63;;;6.63;;
51467;SDS011;37545;45.302;-122.946;2022-12-20T14:02:29;13.75;;;6.55;;
51467;SDS011;37545;45.302;-122.946;2022-12-20T14:05:02;15.15;;;6.50;;
51467;SDS011;37545;45.302;-122.946;2022-12-20T14:07:34;13.02;;;6.03;;
51467;SDS011;37545;45.302;-122.946;2022-12-20T14:10:11;13.50;;;6.22;;
51467;SDS011;37545;45.302;-122.946;2022-12-20T14:12:45;16.20;;;6.25;;
51467;SDS011;37545;45.302;-122.946;2022-12-20T14:15:23;10.00;;;4.82;;
51467;SDS011;37545;45.302;-122.946;2022-12-20T14:17:54;9.05;;;5.50;;
51467;SDS011;37545;45.302;-122.946;2022-12-20T14:20:23;12.27;;;5.05;;
51467;SDS011;37545;45.302;-122.946;2022-12-20T14:22:57;9.02;;;5.35;;
51467;SDS011;37545;45.302;-122.946;2022-12-20T14:25:31;12.40;;;5.70;;
51467;SDS011;37545;45.302;-122.946;2022-12-20T14:28:03;11.23;;;5.80;;
51467;SDS011;37545;45.302;-122.946;2022-12-20T14:30:43;16.02;;;6.22;;
51467;SDS011;37545;45.302;-122.946;2022-12-20T14:33:17;14.75;;;5.95;;
51467;SDS011;37545;45.302;-122.946;2022-12-20T14:35:48;10.23;;;5.55;;
51467;SDS011;37545;45.302;-122.946;2022-12-20T14:38:19;8.98;;;5.10;;
51467;SDS011;37545;45.302;-122.946;2022-12-20T14:43:23;10.77;;;5.47;;
51467;SDS011;37545;45.302;-122.946;2022-12-20T14:46:16;14.88;;;5.47;;
51467;SDS011;37545;45.302;-122.946;2022-12-20T14:48:47;10.00;;;4.88;;
51467;SDS011;37545;45.302;-122.946;2022-12-20T14:51:31;13.20;;;6.43;;
51467;SDS011;37545;45.302;-122.946;2022-12-20T14:54:00;10.82;;;5.40;;
51467;SDS011;37545;45.302;-122.946;2022-12-20T14:56:29;13.40;;;5.78;;
51467;SDS011;37545;45.302;-122.946;2022-12-20T14:59:02;12.25;;;5.30;;
51467;SDS011;37545;45.302;-122.946;2022-12-20T15:01:39;18.40;;;5.78;;
51467;SDS011;37545;45.302;-122.946;2022-12-20T15:04:21;14.55;;;5.53;;
51467;SDS011;37545;45.302;-122.946;2022-12-20T15:06:56;10.63;;;5.50;;
51467;SDS011;37545;45.302;-122.946;2022-12-20T15:09:25;14.50;;;6.32;;
51467;SDS011;37545;45.302;-122.946;2022-12-20T15:11:55;12.25;;;5.72;;